Time;durP1;ratioP1;P1;durP2;ratioP2;P2;SDS_P1;SDS_P2;PMS_P1;PMS_P2;Temp;Humidity;BMP_temperature;BMP_pressure;BME280_temperature;BME280_humidity;BME280_pressure;Samples;Min_cycle;Max_cycle;Signal;HPM_P1;HPM_P2
2022/11/15 00:00:58;;;;;;;29.57;13.50;;;;;;;7.58;100.00;100965.03;5052762;28;20472;-68
2022/11/15 00:03:27;;;;;;;26.90;13.00;;;;;;;7.59;100.00;100964.75;5054214;28;20899;-68
2022/11/15 00:05:53;;;;;;;29.70;13.13;;;;;;;7.52;100.00;100964.22;5052738;28;20829;-69
2022/11/15 00:08:20;;;;;;;30.10;13.50;;;;;;;7.48;100.00;100962.34;5054393;28;20922;-68
2022/11/15 00:10:55;;;;;;;36.17;12.53;;;;;;;7.41;100.00;100964.50;5053574;28;20501;-68
2022/11/15 00:13:23;;;;;;;29.60;12.90;;;;;;;7.45;100.00;100955.63;5053507;28;20986;-69
2022/11/15 00:15:50;;;;;;;30.87;13.93;;;;;;;7.44;99.81;100958.59;5053451;28;20486;-68
2022/11/15 00:18:18;;;;;;;33.93;15.20;;;;;;;7.34;99.84;100954.00;5053838;28;20553;-69
2022/11/15 00:20:44;;;;;;;34.80;13.33;;;;;;;7.27;99.89;100943.50;5053045;28;20549;-69
2022/11/15 00:23:11;;;;;;;26.50;13.17;;;;;;;7.26;99.38;100944.59;5052104;28;20485;-69
2022/11/15 00:25:38;;;;;;;27.63;13.23;;;;;;;7.27;100.00;100940.00;5054011;28;20438;-69
2022/11/15 00:28:04;;;;;;;26.40;13.90;;;;;;;7.29;100.00;100943.22;5052324;28;20484;-69
2022/11/15 00:30:34;;;;;;;27.10;12.60;;;;;;;7.32;100.00;100940.00;5053846;28;20446;-68
2022/11/15 00:33:04;;;;;;;25.93;12.17;;;;;;;7.36;100.00;100940.28;5050494;28;21097;-69
2022/11/15 00:35:32;;;;;;;27.53;13.00;;;;;;;7.37;100.00;100931.91;5053867;28;20482;-69
2022/11/15 00:37:59;;;;;;;34.50;14.50;;;;;;;7.30;100.00;100932.19;5052792;28;20565;-69
2022/11/15 00:40:25;;;;;;;33.33;12.97;;;;;;;7.29;100.00;100932.44;5053849;28;20461;-69
2022/11/15 00:42:52;;;;;;;29.17;13.20;;;;;;;7.36;100.00;100934.88;5052965;28;20961;-69
2022/11/15 00:45:18;;;;;;;25.33;12.80;;;;;;;7.33;100.00;100926.25;5052751;28;20545;-70
2022/11/15 00:47:47;;;;;;;27.33;13.63;;;;;;;7.34;100.00;100930.53;5053629;28;20494;-70
2022/11/15 00:50:14;;;;;;;25.40;12.27;;;;;;;7.32;100.00;100921.13;5051357;28;20494;-69
2022/11/15 00:52:40;;;;;;;24.83;12.87;;;;;;;7.31;100.00;100928.41;5053378;28;20454;-69
2022/11/15 00:55:07;;;;;;;38.10;14.50;;;;;;;7.31;100.00;100925.72;5052065;28;20462;-70
2022/11/15 00:57:34;;;;;;;35.67;15.20;;;;;;;7.29;100.00;100922.47;5053416;28;20463;-69
2022/11/15 01:00:01;;;;;;;26.90;12.83;;;;;;;7.24;100.00;100925.19;5051890;28;20462;-70
2022/11/15 01:02:27;;;;;;;31.83;13.57;;;;;;;7.22;100.00;100908.50;5053445;28;20448;-69
2022/11/15 01:04:55;;;;;;;27.00;13.13;;;;;;;7.18;99.90;100909.28;5051375;28;20458;-70
2022/11/15 01:07:22;;;;;;;29.87;13.30;;;;;;;7.05;99.50;100907.94;5053019;28;20467;-69
2022/11/15 01:09:48;;;;;;;31.63;14.17;;;;;;;6.99;100.00;100912.50;5052336;28;20458;-69
2022/11/15 01:12:15;;;;;;;32.93;13.83;;;;;;;7.01;99.96;100912.25;5053314;28;20449;-70
2022/11/15 01:14:42;;;;;;;34.17;14.90;;;;;;;7.00;99.82;100905.25;5051167;28;20459;-69
2022/11/15 01:17:08;;;;;;;31.70;13.97;;;;;;;6.93;99.61;100908.19;5052703;28;20504;-70
2022/11/15 01:19:35;;;;;;;31.13;11.20;;;;;;;6.98;99.95;100907.41;5052359;28;20497;-69
2022/11/15 01:22:03;;;;;;;31.97;12.23;;;;;;;6.99;100.00;100901.72;5053130;28;20448;-70
2022/11/15 01:24:29;;;;;;;24.00;12.53;;;;;;;6.94;100.00;100890.16;5050520;28;20481;-69
2022/11/15 01:26:56;;;;;;;25.20;13.00;;;;;;;6.98;100.00;100893.94;5052991;28;20490;-70
2022/11/15 01:29:23;;;;;;;27.33;12.90;;;;;;;7.01;100.00;100888.81;5051951;28;21006;-69
2022/11/15 01:31:49;;;;;;;23.77;11.00;;;;;;;7.06;100.00;100885.31;5053024;28;20446;-70
2022/11/15 01:34:16;;;;;;;37.37;14.30;;;;;;;7.05;100.00;100878.31;5051087;28;20458;-69
2022/11/15 01:36:42;;;;;;;25.07;12.13;;;;;;;7.06;100.00;100888.00;5050781;28;20873;-69
2022/11/15 01:39:10;;;;;;;27.43;12.40;;;;;;;7.07;100.00;100881.53;5053018;28;20438;-69
2022/11/15 01:41:37;;;;;;;31.20;14.00;;;;;;;7.13;100.00;100880.47;5051551;28;20469;-69
2022/11/15 01:44:43;;;;;;;31.53;13.40;;;;;;;7.13;100.00;100864.31;5056163;28;20446;-69
2022/11/15 01:47:16;;;;;;;33.50;14.00;;;;;;;7.12;100.00;100861.88;5054950;28;20477;-69
2022/11/15 01:49:51;;;;;;;31.90;13.93;;;;;;;7.08;100.00;100861.59;5056183;28;20830;-71
2022/11/15 01:52:21;;;;;;;39.83;13.90;;;;;;;7.04;100.00;100852.47;5056706;28;20422;-69
2022/11/15 01:54:51;;;;;;;30.27;14.07;;;;;;;7.05;100.00;100848.69;5055992;28;20465;-70
2022/11/15 01:57:18;;;;;;;30.83;13.83;;;;;;;7.04;100.00;100844.41;5055022;28;20500;-70
2022/11/15 01:59:46;;;;;;;32.00;12.50;;;;;;;7.02;100.00;100843.84;5056835;28;20529;-70
2022/11/15 02:02:14;;;;;;;33.60;14.20;;;;;;;6.99;100.00;100845.19;5055313;28;20464;-70
2022/11/15 02:04:42;;;;;;;35.93;15.23;;;;;;;6.95;100.00;100846.00;5056780;28;20478;-70
2022/11/15 02:07:11;;;;;;;39.67;15.67;;;;;;;6.89;100.00;100847.88;5055535;28;20842;-70
2022/11/15 02:09:39;;;;;;;31.23;12.20;;;;;;;6.90;100.00;100844.09;5056710;28;20798;-70
2022/11/15 02:12:09;;;;;;;29.00;12.90;;;;;;;6.96;100.00;100840.34;5055797;28;20503;-70
2022/11/15 02:14:38;;;;;;;30.73;12.37;;;;;;;6.98;100.00;100840.88;5056609;28;20434;-70
2022/11/15 02:17:21;;;;;;;26.43;12.60;;;;;;;7.05;100.00;100840.63;5054151;28;20577;-70
2022/11/15 02:20:20;;;;;;;22.20;10.40;;;;;;;7.04;100.00;100845.19;5056534;28;20457;-70
2022/11/15 02:23:04;;;;;;;35.33;13.90;;;;;;;7.05;100.00;100841.41;5054669;28;20462;-70
2022/11/15 02:25:40;;;;;;;33.33;13.07;;;;;;;7.06;100.00;100850.31;5055314;28;20907;-70
2022/11/15 02:28:45;;;;;;;28.70;11.50;;;;;;;7.03;100.00;100840.06;5052727;28;20572;-70
2022/11/15 02:31:18;;;;;;;23.93;12.20;;;;;;;7.02;100.00;100833.06;5055548;28;20545;-70
2022/11/15 02:33:54;;;;;;;25.30;11.47;;;;;;;6.96;100.00;100836.84;5056266;28;20469;-71
2022/11/15 02:36:33;;;;;;;29.30;10.70;;;;;;;6.92;100.00;100838.47;5054208;28;20556;-70
2022/11/15 02:39:08;;;;;;;26.47;12.47;;;;;;;6.87;100.00;100830.41;5054945;28;21009;-71
2022/11/15 02:41:43;;;;;;;30.33;12.93;;;;;;;6.89;100.00;100829.03;5056142;28;20430;-70
2022/11/15 02:44:17;;;;;;;24.33;12.23;;;;;;;6.87;100.00;100822.31;5055310;28;20489;-69
2022/11/15 02:49:35;;;;;;;29.67;11.93;;;;;;;6.82;100.00;100823.94;5035848;28;20889;-69
2022/11/15 02:52:02;;;;;;;35.07;13.17;;;;;;;6.80;100.00;100823.38;5040508;28;20454;-69
2022/11/15 02:54:31;;;;;;;26.13;11.90;;;;;;;6.78;100.00;100817.47;5054912;28;20480;-70
2022/11/15 02:57:03;;;;;;;29.17;13.10;;;;;;;6.76;99.98;100816.13;5055988;28;20576;-69
2022/11/15 02:59:57;;;;;;;28.70;13.97;;;;;;;6.72;100.00;100813.16;5055534;28;20458;-69
2022/11/15 03:02:40;;;;;;;34.43;11.97;;;;;;;6.67;100.00;100813.16;5054590;28;21010;-70
2022/11/15 03:05:16;;;;;;;32.40;12.90;;;;;;;6.71;100.00;100813.44;5055703;28;20429;-70
2022/11/15 03:07:52;;;;;;;32.90;14.27;;;;;;;6.76;100.00;100821.50;5054196;28;20546;-70
2022/11/15 03:10:26;;;;;;;23.87;11.27;;;;;;;6.75;100.00;100812.63;5055284;28;21006;-70
2022/11/15 03:12:57;;;;;;;32.33;13.00;;;;;;;6.80;100.00;100807.22;5054839;28;20533;-71
2022/11/15 03:15:28;;;;;;;28.40;12.23;;;;;;;6.87;100.00;100811.56;5055171;28;20517;-70
2022/11/15 03:18:01;;;;;;;30.47;11.30;;;;;;;6.86;100.00;100809.91;5039900;28;20486;-71
2022/11/15 03:20:29;;;;;;;28.07;11.57;;;;;;;6.93;100.00;100810.47;5054562;28;20801;-70
2022/11/15 03:22:59;;;;;;;28.50;12.17;;;;;;;6.99;100.00;100809.38;5035066;28;20872;-71
2022/11/15 03:25:30;;;;;;;23.10;11.30;;;;;;;6.98;100.00;100810.44;5034935;28;20803;-70
2022/11/15 03:27:59;;;;;;;27.53;11.23;;;;;;;7.01;100.00;100807.22;5035505;28;20487;-70
2022/11/15 03:30:27;;;;;;;28.17;12.67;;;;;;;6.96;100.00;100805.34;5054969;28;20840;-70
2022/11/15 03:32:59;;;;;;;33.83;13.57;;;;;;;6.96;100.00;100804.53;5054563;28;20438;-70
2022/11/15 03:35:28;;;;;;;32.90;13.37;;;;;;;6.92;100.00;100803.47;5054479;28;20446;-70
2022/11/15 03:38:00;;;;;;;34.90;12.90;;;;;;;6.85;100.00;100808.31;5054358;28;20604;-70
2022/11/15 03:40:34;;;;;;;24.77;14.30;;;;;;;6.82;100.00;100810.47;5054439;28;20449;-71
2022/11/15 03:43:08;;;;;;;26.27;13.53;;;;;;;6.85;100.00;100803.72;5054026;28;20548;-71
2022/11/15 03:45:44;;;;;;;28.53;12.17;;;;;;;6.85;100.00;100803.72;5055028;28;20536;-70
2022/11/15 03:48:15;;;;;;;24.50;11.50;;;;;;;6.82;100.00;100807.78;5053612;28;20469;-71
2022/11/15 03:50:43;;;;;;;29.07;13.07;;;;;;;6.83;100.00;100800.50;5052702;28;20494;-70
2022/11/15 03:53:10;;;;;;;28.73;13.07;;;;;;;6.85;100.00;100803.72;5053198;28;20854;-71
2022/11/15 03:55:37;;;;;;;28.40;13.47;;;;;;;6.86;100.00;100801.84;5054776;28;20478;-71
2022/11/15 03:58:04;;;;;;;31.87;12.63;;;;;;;6.89;100.00;100795.91;5053192;28;20497;-71
2022/11/15 04:00:30;;;;;;;22.53;11.27;;;;;;;6.91;100.00;100796.47;5052827;28;20489;-70
2022/11/15 04:02:57;;;;;;;21.17;11.07;;;;;;;6.93;100.00;100799.69;5054604;28;20438;-71
2022/11/15 04:05:25;;;;;;;24.00;10.13;;;;;;;6.95;100.00;100797.53;5052656;28;20840;-71
2022/11/15 04:07:51;;;;;;;24.57;12.10;;;;;;;6.94;100.00;100791.34;5054402;28;20462;-71
2022/11/15 04:10:18;;;;;;;25.10;12.10;;;;;;;6.98;100.00;100794.28;5053483;28;20458;-70
2022/11/15 04:12:47;;;;;;;30.00;12.37;;;;;;;6.96;100.00;100794.56;5054395;28;20447;-71
2022/11/15 04:15:16;;;;;;;30.87;11.50;;;;;;;6.95;100.00;100798.34;5053450;28;20554;-71
2022/11/15 04:17:44;;;;;;;26.90;12.30;;;;;;;6.88;100.00;100791.63;5053851;28;20489;-71
2022/11/15 04:25:46;;;;;;;30.27;12.27;;;;;;;6.87;100.00;100801.59;5052213;28;20463;-71
2022/11/15 04:28:12;;;;;;;25.40;11.17;;;;;;;6.88;100.00;100803.19;5054015;28;20458;-69
2022/11/15 04:30:39;;;;;;;32.73;11.80;;;;;;;6.78;100.00;100795.94;5052753;28;20959;-70
2022/11/15 04:33:06;;;;;;;27.43;12.73;;;;;;;6.86;100.00;100797.25;5053567;28;20899;-70
2022/11/15 04:35:32;;;;;;;27.10;12.40;;;;;;;6.80;100.00;100791.09;5053835;28;20442;-68
2022/11/15 04:38:01;;;;;;;23.97;10.53;;;;;;;6.79;100.00;100781.41;5053898;28;20526;-70
2022/11/15 04:40:27;;;;;;;26.57;12.67;;;;;;;6.68;100.00;100787.84;5053737;28;20434;-70
2022/11/15 04:42:54;;;;;;;30.40;11.53;;;;;;;6.64;100.00;100786.81;5052553;28;20983;-70
2022/11/15 04:45:21;;;;;;;28.10;10.93;;;;;;;6.72;100.00;100785.44;5053445;28;20486;-70
2022/11/15 04:47:48;;;;;;;29.37;12.40;;;;;;;6.62;100.00;100778.19;5052720;28;20570;-70
2022/11/15 04:50:15;;;;;;;24.97;11.50;;;;;;;6.67;100.00;100783.56;5053696;28;20452;-70
2022/11/15 04:52:42;;;;;;;27.83;11.90;;;;;;;6.65;100.00;100774.94;5051822;28;20466;-70
2022/11/15 04:55:11;;;;;;;28.67;10.73;;;;;;;6.66;100.00;100779.25;5053636;28;20446;-70
2022/11/15 04:57:38;;;;;;;25.07;11.83;;;;;;;6.70;100.00;100777.63;5052257;28;20497;-70
2022/11/15 05:00:07;;;;;;;24.20;11.30;;;;;;;6.73;100.00;100773.56;5053575;28;20443;-71
2022/11/15 05:05:14;;;;;;;24.70;10.63;;;;;;;6.66;100.00;100781.94;5052873;28;20962;-71
2022/11/15 05:07:40;;;;;;;26.13;10.80;;;;;;;6.72;100.00;100786.22;5050705;28;20478;-71
2022/11/15 05:10:07;;;;;;;24.60;12.80;;;;;;;6.72;100.00;100790.81;5053095;28;20444;-69
2022/11/15 05:12:35;;;;;;;25.80;11.33;;;;;;;6.67;100.00;100790.81;5052278;28;20458;-70
2022/11/15 05:15:02;;;;;;;31.50;12.60;;;;;;;6.65;100.00;100784.91;5053305;28;20441;-69
2022/11/15 05:17:29;;;;;;;24.87;11.97;;;;;;;6.61;100.00;100791.91;5051144;28;20497;-69
2022/11/15 05:19:55;;;;;;;27.77;11.40;;;;;;;6.57;100.00;100792.44;5052926;28;20865;-69
2022/11/15 05:22:22;;;;;;;24.10;10.90;;;;;;;6.58;100.00;100787.84;5052275;28;20457;-69
2022/11/15 05:24:49;;;;;;;32.87;12.90;;;;;;;6.59;100.00;100789.47;5053155;28;20443;-69
2022/11/15 05:27:15;;;;;;;27.10;11.40;;;;;;;6.47;100.00;100786.25;5051791;28;20477;-70
2022/11/15 05:29:43;;;;;;;25.30;11.30;;;;;;;6.49;100.00;100784.09;5052035;28;20462;-69
2022/11/15 05:32:12;;;;;;;22.43;10.93;;;;;;;6.38;99.33;100782.50;5051102;28;20462;-70
2022/11/15 05:34:39;;;;;;;24.27;12.03;;;;;;;6.20;98.79;100786.50;5052713;28;20477;-69
2022/11/15 05:37:05;;;;;;;31.07;9.87;;;;;;;6.22;98.61;100782.47;5050326;28;20573;-70
2022/11/15 05:39:32;;;;;;;28.30;12.33;;;;;;;6.05;97.86;100780.00;5052680;28;20483;-70
2022/11/15 05:42:05;;;;;;;31.10;11.83;;;;;;;5.96;98.02;100770.03;5051662;28;20468;-70
2022/11/15 05:44:32;;;;;;;24.10;10.40;;;;;;;5.93;98.86;100775.94;5052267;28;20429;-70
2022/11/15 05:47:00;;;;;;;24.90;10.97;;;;;;;5.87;99.78;100775.09;5050505;28;20478;-70
2022/11/15 05:49:31;;;;;;;25.30;10.93;;;;;;;5.93;99.66;100778.63;5051829;28;20446;-70
2022/11/15 05:51:58;;;;;;;23.47;11.43;;;;;;;5.80;100.00;100785.31;5052998;28;20433;-69
2022/11/15 05:54:26;;;;;;;25.10;10.80;;;;;;;5.73;100.00;100780.16;5052111;28;20873;-70
2022/11/15 05:56:53;;;;;;;20.60;9.70;;;;;;;5.71;100.00;100779.63;5052258;28;20573;-70
2022/11/15 05:59:20;;;;;;;25.17;10.60;;;;;;;5.64;100.00;100773.69;5051796;28;20903;-70
2022/11/15 06:01:47;;;;;;;26.43;11.00;;;;;;;5.74;100.00;100783.66;5051836;28;20458;-70
2022/11/15 06:04:15;;;;;;;24.47;11.53;;;;;;;5.64;100.00;100775.56;5051794;28;20548;-70
2022/11/15 06:06:41;;;;;;;27.20;10.47;;;;;;;5.59;100.00;100775.53;5050551;28;21033;-70
2022/11/15 06:09:08;;;;;;;27.20;11.60;;;;;;;5.60;100.00;100777.97;5051695;28;20462;-70
2022/11/15 06:11:34;;;;;;;27.20;10.50;;;;;;;5.64;100.00;100783.63;5052772;28;20474;-70
2022/11/15 06:14:01;;;;;;;28.80;12.57;;;;;;;5.67;100.00;100777.72;5051363;28;20461;-70
2022/11/15 06:16:27;;;;;;;28.13;11.07;;;;;;;5.54;100.00;100784.41;5052468;28;20819;-70
2022/11/15 06:18:54;;;;;;;21.83;10.23;;;;;;;5.29;100.00;100780.50;5051496;28;20904;-70
2022/11/15 06:21:22;;;;;;;18.80;8.70;;;;;;;5.27;99.67;100788.03;5052820;28;20479;-69
2022/11/15 06:23:49;;;;;;;21.63;10.90;;;;;;;5.24;99.27;100785.84;5051227;28;20900;-70
2022/11/15 06:26:15;;;;;;;34.67;11.63;;;;;;;5.26;98.40;100794.44;5051951;28;20449;-70
2022/11/15 06:28:42;;;;;;;22.87;10.43;;;;;;;5.24;99.01;100787.75;5051417;28;20565;-70
2022/11/15 06:31:11;;;;;;;24.00;11.20;;;;;;;5.18;98.05;100784.22;5055146;28;20442;-70
2022/11/15 06:33:38;;;;;;;22.53;9.97;;;;;;;5.10;98.53;100783.91;5054698;28;20962;-70
2022/11/15 06:36:07;;;;;;;19.03;8.63;;;;;;;5.18;98.08;100781.53;5056064;28;20484;-70
2022/11/15 06:38:35;;;;;;;26.53;10.93;;;;;;;5.21;98.55;100785.56;5054913;28;20493;-70
2022/11/15 06:41:03;;;;;;;22.67;10.10;;;;;;;5.21;99.37;100786.38;5054685;28;20951;-70
2022/11/15 06:43:29;;;;;;;24.23;10.60;;;;;;;5.19;99.96;100788.50;5054812;28;20466;-70
2022/11/15 06:45:56;;;;;;;28.37;11.40;;;;;;;5.26;99.97;100788.28;5055088;28;20575;-70
2022/11/15 06:48:23;;;;;;;23.47;11.30;;;;;;;5.27;100.00;100797.97;5054893;28;20480;-70
2022/11/15 06:50:51;;;;;;;25.80;10.10;;;;;;;5.19;100.00;100799.25;5053777;28;20844;-70
2022/11/15 06:53:18;;;;;;;22.83;9.70;;;;;;;5.06;98.77;100805.09;5055655;28;20446;-70
2022/11/15 06:55:46;;;;;;;22.00;9.67;;;;;;;5.11;98.67;100796.25;5054849;28;20457;-70
2022/11/15 06:58:13;;;;;;;28.93;10.60;;;;;;;5.04;98.23;100802.63;5054584;28;20572;-71
2022/11/15 07:00:39;;;;;;;27.27;10.27;;;;;;;5.11;97.47;100801.63;5054835;28;20559;-72
2022/11/15 07:03:06;;;;;;;21.50;8.93;;;;;;;4.99;97.15;100796.44;5055422;28;20959;-72
2022/11/15 07:05:33;;;;;;;17.73;10.60;;;;;;;5.01;96.96;100811.22;5054723;28;20568;-71
2022/11/15 07:08:00;;;;;;;22.70;11.53;;;;;;;5.05;97.94;100814.22;5055496;28;20489;-71
2022/11/15 07:10:27;;;;;;;34.20;13.03;;;;;;;5.11;97.41;100815.03;5054390;28;20537;-70
2022/11/15 07:12:56;;;;;;;24.60;9.77;;;;;;;5.18;97.16;100813.75;5055174;28;20473;-70
2022/11/15 07:15:25;;;;;;;24.60;10.03;;;;;;;5.12;97.39;100814.78;5054224;28;20469;-70
2022/11/15 07:17:52;;;;;;;24.10;9.73;;;;;;;5.22;97.48;100812.19;5053917;28;20576;-71
2022/11/15 07:20:19;;;;;;;24.00;10.00;;;;;;;5.28;98.79;100818.38;5055470;28;20449;-70
2022/11/15 07:22:46;;;;;;;18.70;8.90;;;;;;;5.35;99.83;100826.19;5051681;28;20549;-71
2022/11/15 07:25:13;;;;;;;25.97;10.73;;;;;;;5.43;100.00;100823.00;5055213;28;20890;-69
2022/11/15 07:27:39;;;;;;;21.90;10.13;;;;;;;5.51;100.00;100822.53;5053884;28;20480;-71
2022/11/15 07:30:08;;;;;;;28.40;12.67;;;;;;;5.58;100.00;100820.41;5057407;28;20820;-69
2022/11/15 07:32:36;;;;;;;27.47;10.93;;;;;;;5.63;100.00;100820.44;5054340;28;20490;-71
2022/11/15 07:35:02;;;;;;;34.57;11.50;;;;;;;5.63;100.00;100820.44;5053593;28;20525;-68
2022/11/15 07:37:29;;;;;;;23.13;11.80;;;;;;;5.79;100.00;100823.97;5052513;28;20490;-69
2022/11/15 07:39:55;;;;;;;22.03;10.90;;;;;;;5.89;100.00;100820.50;5055033;28;20474;-69
2022/11/15 07:45:08;;;;;;;26.10;12.87;;;;;;;6.02;100.00;100820.88;5054935;28;20532;-69
2022/11/15 07:47:35;;;;;;;28.47;10.93;;;;;;;6.17;100.00;100816.63;5053703;28;20556;-68
2022/11/15 07:50:01;;;;;;;23.13;10.87;;;;;;;6.29;100.00;100812.59;5054540;28;20534;-69
2022/11/15 07:52:28;;;;;;;28.80;12.80;;;;;;;6.31;100.00;100813.13;5053570;28;20565;-69
2022/11/15 07:54:54;;;;;;;34.73;12.80;;;;;;;6.44;100.00;100811.81;5054776;28;20466;-69
2022/11/15 07:57:21;;;;;;;35.83;12.20;;;;;;;6.57;100.00;100813.97;5053574;28;20580;-70
2022/11/15 07:59:47;;;;;;;25.57;12.27;;;;;;;6.66;100.00;100810.75;5053577;28;20500;-70
2022/11/15 08:02:17;;;;;;;30.57;14.97;;;;;;;6.80;100.00;100811.81;5053609;28;20458;-70
2022/11/15 08:04:44;;;;;;;31.47;13.20;;;;;;;6.88;100.00;100799.69;5049716;28;20840;-68
2022/11/15 08:07:11;;;;;;;26.43;12.27;;;;;;;6.97;100.00;100811.53;5051063;28;20486;-69
2022/11/15 08:09:37;;;;;;;29.00;14.40;;;;;;;7.11;100.00;100804.50;5054361;28;20529;-68
2022/11/15 08:12:05;;;;;;;20.30;9.93;;;;;;;7.21;100.00;100812.56;5053093;28;20545;-69
2022/11/15 08:14:31;;;;;;;29.63;12.83;;;;;;;7.33;100.00;100817.66;5054393;28;20813;-70
2022/11/15 08:16:58;;;;;;;34.30;11.40;;;;;;;7.42;100.00;100818.72;5053187;28;20863;-69
2022/11/15 08:19:26;;;;;;;37.20;12.90;;;;;;;7.52;100.00;100807.88;5052564;28;20538;-69
2022/11/15 08:21:52;;;;;;;24.73;11.47;;;;;;;7.69;100.00;100812.16;5052048;28;20458;-68
2022/11/15 08:24:20;;;;;;;29.70;12.50;;;;;;;7.76;100.00;100815.38;5052207;28;20462;-69
2022/11/15 08:26:46;;;;;;;28.30;12.50;;;;;;;7.82;100.00;100806.97;5052715;28;20486;-69
2022/11/15 08:29:13;;;;;;;28.23;11.90;;;;;;;7.87;100.00;100810.72;5054115;28;20524;-68
2022/11/15 08:31:40;;;;;;;26.23;10.37;;;;;;;7.97;100.00;100816.06;5052981;28;20458;-69
2022/11/15 08:34:07;;;;;;;24.93;9.80;;;;;;;8.12;100.00;100817.88;5054044;28;20569;-68
2022/11/15 08:36:35;;;;;;;25.33;11.70;;;;;;;8.25;100.00;100818.06;5049244;28;20550;-69
2022/11/15 08:39:02;;;;;;;25.67;10.63;;;;;;;8.35;100.00;100826.09;5051619;28;20501;-68
2022/11/15 08:41:32;;;;;;;30.93;12.00;;;;;;;8.50;100.00;100817.13;5051883;28;20453;-68
2022/11/15 08:43:58;;;;;;;29.17;11.10;;;;;;;8.61;100.00;100812.44;5053610;28;20948;-68
2022/11/15 08:46:25;;;;;;;24.67;10.60;;;;;;;8.72;100.00;100821.25;5052495;28;20947;-70
2022/11/15 08:48:52;;;;;;;22.80;10.33;;;;;;;8.82;100.00;100813.91;5053701;28;20464;-68
2022/11/15 08:51:18;;;;;;;19.47;10.23;;;;;;;8.92;99.60;100810.28;5052654;28;20482;-67
2022/11/15 08:53:47;;;;;;;23.73;9.83;;;;;;;8.92;98.64;100815.69;5051916;28;20469;-68
2022/11/15 08:56:15;;;;;;;24.00;11.20;;;;;;;8.99;98.09;100807.28;5051649;28;20460;-68
2022/11/15 08:58:42;;;;;;;22.80;10.67;;;;;;;9.09;98.08;100807.16;5051431;28;20494;-69
2022/11/15 09:01:16;;;;;;;25.40;10.63;;;;;;;9.17;97.62;100801.16;5052368;28;20458;-68
2022/11/15 09:03:42;;;;;;;20.00;8.90;;;;;;;9.23;97.52;100799.19;5052523;28;20458;-68
2022/11/15 09:06:09;;;;;;;19.10;8.30;;;;;;;9.32;97.18;100803.69;5053190;28;20452;-68
2022/11/15 09:08:35;;;;;;;22.90;10.73;;;;;;;9.40;96.78;100804.94;5051837;28;20493;-69
2022/11/15 09:11:06;;;;;;;28.80;11.23;;;;;;;9.47;96.77;100805.38;5052411;28;20446;-68
2022/11/15 09:13:33;;;;;;;22.93;9.53;;;;;;;9.57;96.18;100805.28;5051490;28;20483;-68
2022/11/15 09:15:59;;;;;;;21.43;10.07;;;;;;;9.66;95.94;100805.47;5051803;28;20541;-68
2022/11/15 09:18:27;;;;;;;26.97;12.37;;;;;;;9.71;95.47;100808.09;5051900;28;20486;-68
2022/11/15 09:20:56;;;;;;;18.60;10.33;;;;;;;9.78;94.88;100813.16;5051920;28;20994;-68
2022/11/15 09:23:23;;;;;;;25.87;10.23;;;;;;;9.83;94.88;100805.78;5052191;28;20535;-68
2022/11/15 09:25:50;;;;;;;19.87;9.83;;;;;;;9.92;94.25;100814.06;5052240;28;20462;-69
2022/11/15 09:28:18;;;;;;;21.17;10.20;;;;;;;9.99;93.50;100813.69;5052017;28;20554;-68
2022/11/15 09:30:44;;;;;;;27.33;11.00;;;;;;;10.08;93.77;100811.94;5053156;28;20446;-68
2022/11/15 09:33:13;;;;;;;19.10;9.13;;;;;;;10.20;92.88;100814.22;5050098;28;20462;-68
2022/11/15 09:35:40;;;;;;;15.67;8.40;;;;;;;10.26;91.96;100819.28;5050732;28;20454;-68
2022/11/15 09:38:07;;;;;;;17.93;8.50;;;;;;;10.29;90.67;100813.28;5051577;28;20536;-68
2022/11/15 09:40:37;;;;;;;18.20;8.57;;;;;;;10.32;90.29;100815.44;5053093;28;20456;-68
2022/11/15 09:43:22;;;;;;;15.97;7.20;;;;;;;10.38;89.95;100816.16;5047994;28;21150;-69
2022/11/15 09:46:01;;;;;;;20.47;10.10;;;;;;;10.46;90.24;100812.78;5038258;28;20549;-68
2022/11/15 09:48:49;;;;;;;21.20;8.37;;;;;;;10.57;90.61;100813.41;5052774;28;20466;-68
2022/11/15 09:51:25;;;;;;;21.83;9.83;;;;;;;10.67;89.82;100817.84;5051990;28;20472;-68
2022/11/15 09:54:03;;;;;;;18.80;9.27;;;;;;;10.70;89.71;100817.28;5050343;28;20544;-68
2022/11/15 09:56:31;;;;;;;18.17;8.23;;;;;;;10.76;89.13;100816.09;5051607;28;20533;-68
2022/11/15 09:59:12;;;;;;;15.40;7.80;;;;;;;10.79;88.76;100802.75;5051271;28;20485;-68
2022/11/15 10:01:50;;;;;;;18.37;10.00;;;;;;;10.82;89.12;100798.66;5051544;28;20907;-69
2022/11/15 10:04:17;;;;;;;18.13;8.40;;;;;;;10.84;89.04;100797.25;5034804;28;20453;-68
2022/11/15 10:06:50;;;;;;;18.50;8.40;;;;;;;10.89;88.51;100795.53;5051681;28;20474;-69
2022/11/15 10:09:22;;;;;;;16.87;8.27;;;;;;;11.03;88.70;100794.50;5053113;28;20490;-68
2022/11/15 10:11:49;;;;;;;17.87;7.67;;;;;;;11.09;87.37;100787.06;5054439;28;20828;-69
2022/11/15 10:14:19;;;;;;;16.60;8.60;;;;;;;11.03;87.91;100789.06;5056590;28;20446;-68
2022/11/15 10:17:06;;;;;;;17.47;8.07;;;;;;;11.20;87.14;100788.50;5055004;28;20573;-68
2022/11/15 10:19:39;;;;;;;19.60;8.67;;;;;;;11.34;86.61;100774.94;5053570;28;20462;-68
2022/11/15 10:22:21;;;;;;;20.17;8.57;;;;;;;11.40;87.27;100778.34;5052985;28;20545;-68
2022/11/15 10:24:48;;;;;;;19.27;8.43;;;;;;;11.50;87.55;100770.00;5055362;28;20464;-68
2022/11/15 10:27:16;;;;;;;21.03;8.70;;;;;;;11.60;87.64;100770.59;5055238;28;20509;-68
2022/11/15 10:29:45;;;;;;;15.13;7.03;;;;;;;11.73;87.02;100760.00;5053102;28;20969;-68
2022/11/15 10:32:15;;;;;;;16.53;7.30;;;;;;;11.80;84.49;100758.50;5055405;28;20464;-69
2022/11/15 10:34:42;;;;;;;15.20;6.90;;;;;;;11.89;84.34;100757.81;5055412;28;20464;-69
2022/11/15 10:37:08;;;;;;;20.33;8.03;;;;;;;11.99;85.98;100744.81;5056149;28;20837;-69
2022/11/15 10:39:35;;;;;;;18.00;7.60;;;;;;;12.12;85.48;100745.88;5054082;28;20585;-69
2022/11/15 10:42:17;;;;;;;16.20;7.33;;;;;;;12.27;85.04;100734.66;5053673;28;20959;-69
2022/11/15 10:44:45;;;;;;;25.70;8.27;;;;;;;12.41;84.57;100741.94;5054323;28;20454;-69
2022/11/15 10:47:27;;;;;;;20.13;7.90;;;;;;;12.56;83.67;100734.19;5055989;28;20490;-69
2022/11/15 10:49:57;;;;;;;21.10;8.83;;;;;;;12.75;83.14;100728.56;5053920;28;20477;-69
2022/11/15 10:52:25;;;;;;;32.80;9.70;;;;;;;12.79;83.19;100726.84;5053765;28;20485;-69
2022/11/15 10:54:55;;;;;;;18.93;7.73;;;;;;;12.93;82.85;100725.94;5054944;28;20462;-69
2022/11/15 10:57:24;;;;;;;12.60;6.20;;;;;;;13.08;82.26;100720.88;5055107;28;20726;-69
2022/11/15 10:59:54;;;;;;;15.37;7.10;;;;;;;13.23;80.59;100719.66;5053782;28;20576;-70
2022/11/15 11:02:32;;;;;;;15.83;7.83;;;;;;;13.30;80.42;100714.56;5055755;28;20447;-71
2022/11/15 11:05:00;;;;;;;25.73;8.27;;;;;;;13.40;80.06;100716.19;5053124;28;20549;-70
2022/11/15 11:07:29;;;;;;;17.83;7.60;;;;;;;13.60;80.20;100712.88;5055535;28;20878;-69
2022/11/15 11:10:01;;;;;;;15.13;7.43;;;;;;;13.74;79.44;100717.38;5050903;28;20524;-69
2022/11/15 11:12:31;;;;;;;15.40;6.97;;;;;;;13.82;77.82;100714.66;5053604;28;20458;-70
2022/11/15 11:14:58;;;;;;;12.17;7.10;;;;;;;13.95;77.02;100714.84;5054054;28;20870;-69
2022/11/15 11:17:37;;;;;;;15.90;6.43;;;;;;;14.02;75.23;100713.22;5051584;28;20533;-69
2022/11/15 11:20:11;;;;;;;13.27;6.90;;;;;;;14.55;73.20;100717.50;5053894;28;20469;-69
2022/11/15 11:22:49;;;;;;;18.00;8.00;;;;;;;15.85;69.43;100714.19;5054312;28;20808;-70
2022/11/15 11:25:27;;;;;;;12.97;6.43;;;;;;;17.16;63.72;100713.63;5052320;28;20532;-69
2022/11/15 11:28:10;;;;;;;14.10;5.43;;;;;;;18.47;59.00;100717.91;5051186;28;20488;-70
2022/11/15 11:30:48;;;;;;;15.10;6.87;;;;;;;19.85;55.75;100723.25;5051398;28;20545;-70
2022/11/15 11:33:21;;;;;;;11.97;6.23;;;;;;;20.68;51.76;100725.69;5045700;28;20469;-70
2022/11/15 11:35:58;;;;;;;15.97;6.47;;;;;;;21.46;49.30;100719.88;5053205;28;20541;-71